Time;durP1;ratioP1;P1;durP2;ratioP2;P2;SDS_P1;SDS_P2;PMS_P1;PMS_P2;Temp;Humidity;BMP_temperature;BMP_pressure;BME280_temperature;BME280_humidity;BME280_pressure;Samples;Min_cycle;Max_cycle;Signal;HPM_P1;HPM_P2
2023/06/15 00:00:24;;;;;;;16.13;14.43;;;19.20;99.90;;;;;;5292661;28;20547;-68
2023/06/15 00:02:56;;;;;;;16.45;14.75;;;19.20;99.90;;;;;;5292871;28;20008;-68
2023/06/15 00:05:27;;;;;;;15.77;14.10;;;19.20;99.90;;;;;;5292892;28;20066;-68
2023/06/15 00:07:58;;;;;;;20.45;14.25;;;19.30;99.90;;;;;;5292902;28;20055;-68
2023/06/15 00:10:28;;;;;;;16.90;14.63;;;19.30;99.90;;;;;;5292723;28;20016;-71
2023/06/15 00:12:59;;;;;;;17.70;15.88;;;19.30;99.90;;;;;;5292585;28;20095;-67
2023/06/15 00:15:30;;;;;;;16.55;14.98;;;19.20;99.90;;;;;;5292505;28;20024;-68
2023/06/15 00:18:01;;;;;;;17.40;15.57;;;19.10;99.90;;;;;;5292316;28;20085;-67
2023/06/15 00:20:32;;;;;;;16.23;14.68;;;19.10;99.90;;;;;;5292383;28;20059;-68
2023/06/15 00:23:04;;;;;;;16.45;14.82;;;19.20;99.90;;;;;;5292348;28;20022;-68
2023/06/15 00:25:35;;;;;;;17.05;14.68;;;19.20;99.90;;;;;;5292298;28;20032;-67
2023/06/15 00:28:05;;;;;;;18.50;16.00;;;19.10;99.90;;;;;;5291985;28;20040;-68
2023/06/15 00:30:36;;;;;;;19.58;15.82;;;19.10;99.90;;;;;;5292106;28;20035;-68
2023/06/15 00:33:07;;;;;;;16.80;15.07;;;19.10;99.90;;;;;;5292133;28;20098;-72
2023/06/15 00:35:38;;;;;;;16.42;14.80;;;19.10;99.90;;;;;;5292058;28;20085;-68
2023/06/15 00:38:09;;;;;;;15.57;14.02;;;19.10;99.90;;;;;;5273676;28;20092;-68
2023/06/15 00:40:40;;;;;;;17.13;15.52;;;19.00;99.90;;;;;;5291942;28;20031;-68
2023/06/15 00:43:11;;;;;;;18.60;15.88;;;18.90;99.90;;;;;;5291989;28;20015;-68
2023/06/15 00:45:42;;;;;;;18.85;16.85;;;18.80;99.90;;;;;;5291749;28;20031;-68
2023/06/15 00:50:53;;;;;;;18.63;16.80;;;18.70;99.90;;;;;;5359491;23;20125;-69
2023/06/15 00:53:24;;;;;;;18.48;16.40;;;18.70;99.90;;;;;;5147568;28;20102;-72
2023/06/15 00:55:56;;;;;;;20.45;18.38;;;18.70;99.90;;;;;;5147545;28;20031;-69
2023/06/15 00:58:27;;;;;;;20.38;18.27;;;18.60;99.90;;;;;;5147433;28;20452;-69
2023/06/15 01:00:59;;;;;;;20.38;18.27;;;18.70;99.90;;;;;;5147441;28;20023;-69
2023/06/15 01:03:30;;;;;;;21.58;19.58;;;18.70;99.90;;;;;;5147267;28;20066;-69
2023/06/15 01:06:13;;;;;;;21.85;19.77;;;18.60;99.90;;;;;;5147264;28;20457;-69
2023/06/15 01:08:47;;;;;;;22.58;20.42;;;18.60;99.90;;;;;;5147278;28;20046;-69
2023/06/15 01:11:18;;;;;;;22.73;20.63;;;18.60;99.90;;;;;;5147219;28;20031;-69
2023/06/15 01:13:50;;;;;;;20.52;18.48;;;18.60;99.90;;;;;;5147129;28;20027;-69
2023/06/15 01:16:43;;;;;;;19.98;18.08;;;18.70;99.90;;;;;;5147099;28;20026;-69
2023/06/15 01:19:38;;;;;;;20.63;18.42;;;18.70;99.90;;;;;;5146793;28;20039;-69
2023/06/15 01:22:45;;;;;;;20.00;18.02;;;18.70;99.90;;;;;;5147032;28;20411;-69
2023/06/15 01:25:29;;;;;;;19.65;17.73;;;18.40;99.90;;;;;;5145665;28;20038;-69
2023/06/15 01:28:05;;;;;;;20.20;18.30;;;18.50;99.90;;;;;;5147126;28;20026;-68
2023/06/15 01:30:44;;;;;;;18.75;16.85;;;18.30;99.90;;;;;;5146849;28;20042;-69
2023/06/15 01:33:16;;;;;;;19.50;17.55;;;18.30;99.90;;;;;;5146839;28;20023;-69
2023/06/15 01:35:47;;;;;;;18.60;16.63;;;18.30;99.90;;;;;;5146844;28;20102;-68
2023/06/15 01:38:21;;;;;;;19.17;17.20;;;18.30;99.90;;;;;;5146873;28;20442;-69
2023/06/15 01:40:55;;;;;;;17.60;16.05;;;18.30;99.90;;;;;;5146646;28;20105;-69
2023/06/15 01:43:30;;;;;;;17.23;15.57;;;18.30;99.90;;;;;;5146708;28;20057;-69
2023/06/15 01:46:02;;;;;;;18.42;16.58;;;18.40;99.90;;;;;;5146725;28;20037;-69
2023/06/15 01:48:33;;;;;;;17.27;15.60;;;18.50;99.90;;;;;;5145226;28;20569;-69
2023/06/15 01:51:04;;;;;;;17.90;16.08;;;18.30;99.90;;;;;;5146199;28;20051;-72
2023/06/15 01:53:36;;;;;;;17.27;15.43;;;18.30;99.90;;;;;;5146473;28;20027;-69
2023/06/15 01:56:07;;;;;;;16.58;14.82;;;18.30;99.90;;;;;;5146323;28;20022;-69
2023/06/15 01:58:37;;;;;;;17.38;15.63;;;18.40;99.90;;;;;;5146204;28;20046;-69
2023/06/15 02:01:08;;;;;;;17.00;15.50;;;18.40;99.90;;;;;;5146242;28;20403;-68
2023/06/15 02:03:39;;;;;;;17.77;16.10;;;18.40;99.90;;;;;;5145454;28;20033;-72
2023/06/15 02:06:10;;;;;;;16.13;14.52;;;18.40;99.90;;;;;;5146235;28;20097;-72
2023/06/15 02:08:41;;;;;;;17.67;15.98;;;18.30;99.90;;;;;;5146120;28;20039;-68
2023/06/15 02:11:12;;;;;;;18.20;16.30;;;18.20;99.90;;;;;;5146151;28;20106;-69
2023/06/15 02:13:42;;;;;;;16.35;14.63;;;18.30;99.90;;;;;;5146034;28;20027;-72
2023/06/15 02:16:15;;;;;;;16.98;15.27;;;18.30;99.90;;;;;;5146011;28;20538;-69
2023/06/15 02:18:47;;;;;;;16.77;15.15;;;18.40;99.90;;;;;;5145519;28;20078;-69
2023/06/15 02:21:18;;;;;;;17.10;15.40;;;18.30;99.90;;;;;;5145840;28;20093;-70
2023/06/15 02:23:49;;;;;;;17.23;15.52;;;18.30;99.90;;;;;;5145806;28;20117;-71
2023/06/15 02:26:20;;;;;;;17.85;16.02;;;18.20;99.90;;;;;;5145874;28;20447;-69
2023/06/15 02:28:51;;;;;;;18.55;16.60;;;18.00;99.90;;;;;;5145743;28;20027;-75
2023/06/15 02:31:23;;;;;;;18.25;16.55;;;18.10;99.90;;;;;;5145728;28;20162;-71
2023/06/15 02:33:54;;;;;;;19.40;17.13;;;18.00;99.90;;;;;;5145518;28;20038;-71
2023/06/15 02:36:25;;;;;;;18.50;16.60;;;17.90;99.90;;;;;;5145563;28;20033;-68
2023/06/15 02:38:57;;;;;;;18.65;16.85;;;18.10;99.90;;;;;;5145426;28;20129;-69
2023/06/15 02:41:28;;;;;;;18.45;16.40;;;18.00;99.90;;;;;;5145497;28;20549;-68
2023/06/15 02:44:01;;;;;;;16.83;15.32;;;18.10;99.90;;;;;;5145415;28;20031;-68
2023/06/15 02:46:32;;;;;;;15.80;14.25;;;18.10;99.90;;;;;;5145421;28;20033;-68
2023/06/15 02:49:03;;;;;;;16.58;14.95;;;18.10;99.90;;;;;;5145099;28;20378;-69
2023/06/15 02:51:35;;;;;;;16.63;15.18;;;18.00;99.90;;;;;;5145683;28;20031;-68
2023/06/15 02:54:06;;;;;;;16.35;14.73;;;17.90;99.90;;;;;;5145330;28;20088;-69
2023/06/15 02:56:37;;;;;;;16.75;15.05;;;18.00;99.90;;;;;;5145331;28;20035;-69
2023/06/15 02:59:09;;;;;;;15.50;13.30;;;18.00;99.90;;;;;;5145302;28;20038;-69
2023/06/15 03:01:41;;;;;;;14.23;12.73;;;17.90;99.90;;;;;;5145256;28;20030;-69
2023/06/15 03:04:13;;;;;;;15.05;13.50;;;17.90;99.90;;;;;;5145441;28;20026;-69
2023/06/15 03:06:44;;;;;;;13.80;12.48;;;17.80;99.90;;;;;;5145586;28;20030;-72
2023/06/15 03:09:18;;;;;;;14.23;12.85;;;17.90;99.90;;;;;;5145477;28;20084;-71
2023/06/15 03:11:50;;;;;;;13.85;12.63;;;17.70;99.90;;;;;;5145200;28;20026;-69
2023/06/15 03:14:21;;;;;;;15.73;14.32;;;17.80;99.90;;;;;;5145053;28;20048;-69
2023/06/15 03:16:54;;;;;;;14.68;13.38;;;17.70;99.90;;;;;;5145077;28;20031;-69
2023/06/15 03:19:25;;;;;;;15.48;14.00;;;17.70;99.90;;;;;;5144751;28;20407;-68
2023/06/15 03:21:57;;;;;;;14.50;13.13;;;17.80;99.90;;;;;;5145056;28;20030;-69
2023/06/15 03:24:30;;;;;;;14.82;13.32;;;17.90;99.90;;;;;;5145113;28;20038;-70
2023/06/15 03:27:03;;;;;;;14.32;12.90;;;17.70;99.90;;;;;;5145027;28;20459;-69
2023/06/15 03:29:36;;;;;;;15.25;13.50;;;17.70;99.90;;;;;;5144824;28;20034;-70
2023/06/15 03:32:08;;;;;;;15.38;13.77;;;17.80;99.90;;;;;;5145006;28;20081;-71
2023/06/15 03:34:39;;;;;;;14.52;13.23;;;17.70;99.90;;;;;;5144906;28;20038;-72
2023/06/15 03:37:10;;;;;;;14.15;12.85;;;17.60;99.90;;;;;;5144869;28;20023;-71
2023/06/15 03:39:41;;;;;;;15.55;13.98;;;17.60;99.90;;;;;;5144673;28;20097;-72
2023/06/15 03:42:11;;;;;;;14.70;13.40;;;17.60;99.90;;;;;;5144738;28;20537;-69
2023/06/15 03:44:42;;;;;;;14.68;13.23;;;17.90;99.90;;;;;;5144920;28;20470;-71
2023/06/15 03:47:13;;;;;;;16.70;14.18;;;18.00;99.90;;;;;;5144727;28;20116;-68
2023/06/15 03:49:44;;;;;;;16.42;14.73;;;17.80;99.90;;;;;;5144507;28;20058;-69
2023/06/15 03:52:15;;;;;;;16.40;14.85;;;17.90;99.90;;;;;;5144766;28;20065;-68
2023/06/15 03:54:46;;;;;;;16.17;14.77;;;17.90;99.90;;;;;;5144703;28;20487;-68
2023/06/15 03:57:17;;;;;;;16.02;14.63;;;18.00;99.90;;;;;;5144762;28;20041;-69
2023/06/15 03:59:48;;;;;;;16.25;14.30;;;18.00;99.90;;;;;;5144531;28;20491;-69
2023/06/15 04:02:19;;;;;;;15.55;14.10;;;18.20;99.90;;;;;;5144622;28;20019;-72
2023/06/15 04:04:52;;;;;;;15.80;14.30;;;18.20;99.90;;;;;;5144595;28;20039;-69
2023/06/15 04:07:24;;;;;;;18.13;14.60;;;18.30;99.90;;;;;;5144714;28;20038;-69
2023/06/15 04:09:55;;;;;;;17.02;15.30;;;18.30;99.90;;;;;;5144572;28;20022;-69
2023/06/15 04:12:26;;;;;;;17.00;15.50;;;18.30;99.90;;;;;;5144464;28;20031;-69
2023/06/15 04:14:57;;;;;;;17.67;15.95;;;18.40;99.90;;;;;;5144443;28;20027;-69
2023/06/15 04:17:27;;;;;;;17.77;16.08;;;18.50;99.90;;;;;;5144399;28;20049;-69
2023/06/15 04:19:58;;;;;;;18.02;15.93;;;18.60;99.90;;;;;;5144136;28;20587;-69
2023/06/15 04:22:29;;;;;;;17.58;15.88;;;18.70;99.90;;;;;;5144345;28;20066;-69
2023/06/15 04:25:00;;;;;;;16.05;14.57;;;18.80;99.90;;;;;;5144556;28;20402;-69
2023/06/15 04:27:34;;;;;;;15.85;14.35;;;18.70;99.90;;;;;;5148121;28;20045;-70
2023/06/15 04:30:05;;;;;;;17.52;15.93;;;18.80;99.90;;;;;;5148050;28;20019;-71
2023/06/15 04:32:36;;;;;;;17.83;16.08;;;18.80;99.90;;;;;;5147744;28;20146;-68
2023/06/15 04:35:07;;;;;;;16.45;14.85;;;18.90;99.90;;;;;;5147987;28;20565;-69
2023/06/15 04:37:39;;;;;;;16.45;14.95;;;18.90;99.90;;;;;;5147935;28;20049;-68
2023/06/15 04:40:10;;;;;;;15.73;14.20;;;19.00;99.90;;;;;;5148217;28;20382;-68
2023/06/15 04:42:42;;;;;;;18.55;16.85;;;19.10;99.90;;;;;;5148082;28;20059;-68
2023/06/15 04:45:12;;;;;;;16.63;15.02;;;19.10;99.90;;;;;;5147988;28;20046;-69
2023/06/15 04:47:43;;;;;;;15.80;14.30;;;19.20;99.90;;;;;;5147799;28;20404;-69
2023/06/15 04:50:14;;;;;;;19.20;17.20;;;19.30;99.90;;;;;;5147350;28;20499;-69
2023/06/15 04:52:45;;;;;;;18.63;16.83;;;19.30;99.90;;;;;;5147728;28;20106;-72
2023/06/15 04:55:16;;;;;;;17.48;15.73;;;19.40;99.90;;;;;;5147631;28;20557;-68
2023/06/15 04:57:47;;;;;;;19.90;16.92;;;19.50;99.90;;;;;;5147505;28;20451;-69
2023/06/15 05:00:19;;;;;;;19.10;17.30;;;19.60;99.90;;;;;;5147444;28;20034;-68
2023/06/15 05:02:49;;;;;;;18.50;16.70;;;19.70;99.90;;;;;;5147494;28;20023;-69
2023/06/15 05:05:20;;;;;;;20.60;17.15;;;19.90;99.90;;;;;;5147412;28;20034;-69
2023/06/15 05:07:51;;;;;;;25.02;18.13;;;20.30;99.90;;;;;;5147383;28;20478;-69
2023/06/15 05:10:22;;;;;;;18.38;16.35;;;20.40;99.90;;;;;;5147255;28;20085;-69
2023/06/15 05:12:53;;;;;;;19.25;16.33;;;20.50;99.90;;;;;;5147285;28;20035;-69
2023/06/15 05:15:25;;;;;;;16.52;14.93;;;20.40;99.90;;;;;;5147050;28;20034;-69
2023/06/15 05:17:56;;;;;;;17.70;15.82;;;20.30;99.90;;;;;;5146952;28;20038;-69
2023/06/15 05:20:26;;;;;;;17.63;15.52;;;20.40;99.90;;;;;;5146896;28;20513;-69
2023/06/15 05:22:57;;;;;;;18.02;16.23;;;20.50;99.90;;;;;;5147110;28;20023;-69
2023/06/15 05:25:28;;;;;;;18.88;17.17;;;20.40;99.90;;;;;;5146884;28;20031;-69
2023/06/15 05:27:59;;;;;;;18.20;16.38;;;20.50;99.90;;;;;;5147031;28;20031;-69
2023/06/15 05:30:31;;;;;;;16.05;14.40;;;20.60;99.90;;;;;;5146828;28;20025;-69
2023/06/15 05:33:02;;;;;;;16.40;15.00;;;20.60;99.90;;;;;;5146842;28;20035;-68
2023/06/15 05:35:32;;;;;;;15.35;13.60;;;20.80;99.90;;;;;;5146769;28;20106;-69
2023/06/15 05:38:03;;;;;;;13.50;12.38;;;20.90;99.90;;;;;;5146541;28;20121;-69
2023/06/15 05:40:34;;;;;;;14.88;12.68;;;20.90;99.90;;;;;;5146602;28;20022;-68
2023/06/15 05:43:05;;;;;;;15.27;13.80;;;21.00;99.90;;;;;;5146611;28;20031;-68
2023/06/15 05:45:36;;;;;;;16.02;14.48;;;21.00;99.90;;;;;;5146667;28;20498;-69
2023/06/15 05:48:07;;;;;;;16.10;14.60;;;21.10;99.90;;;;;;5146466;28;20037;-70
2023/06/15 05:50:38;;;;;;;18.15;15.57;;;21.20;99.90;;;;;;5146201;28;20109;-69
2023/06/15 05:53:09;;;;;;;19.33;14.95;;;21.20;99.90;;;;;;5146527;28;20038;-69
2023/06/15 05:55:40;;;;;;;17.98;16.25;;;21.10;99.90;;;;;;5146724;28;20430;-69
2023/06/15 05:58:10;;;;;;;19.50;17.52;;;21.20;99.90;;;;;;5146128;28;20490;-68
2023/06/15 06:00:41;;;;;;;18.45;16.95;;;21.20;99.90;;;;;;5146306;28;20045;-69
2023/06/15 06:03:12;;;;;;;20.27;18.42;;;21.30;99.90;;;;;;5146270;28;20030;-69
2023/06/15 06:05:43;;;;;;;20.35;18.55;;;21.40;99.90;;;;;;5146239;28;20486;-69
2023/06/15 06:08:14;;;;;;;19.42;17.67;;;21.50;99.90;;;;;;5146104;28;20384;-69
2023/06/15 06:10:45;;;;;;;18.80;17.05;;;21.50;99.90;;;;;;5146439;28;20050;-71
2023/06/15 06:13:16;;;;;;;19.55;17.85;;;21.40;99.90;;;;;;5146479;28;20062;-69
2023/06/15 06:15:47;;;;;;;19.00;17.05;;;21.60;99.90;;;;;;5146216;28;20471;-69
2023/06/15 06:18:17;;;;;;;16.33;14.90;;;21.80;99.90;;;;;;5145822;28;20046;-69
2023/06/15 06:20:48;;;;;;;15.00;13.50;;;21.80;99.90;;;;;;5145867;28;20030;-69
2023/06/15 06:23:19;;;;;;;13.65;12.27;;;21.70;99.90;;;;;;5145914;28;20011;-73
2023/06/15 06:25:50;;;;;;;16.15;12.02;;;21.90;99.90;;;;;;5146022;28;20042;-69
2023/06/15 06:28:21;;;;;;;15.40;12.43;;;21.90;99.90;;;;;;5145789;28;20017;-69
2023/06/15 06:30:52;;;;;;;14.82;12.75;;;22.10;99.90;;;;;;5145849;28;20088;-69
2023/06/15 06:33:23;;;;;;;15.27;13.77;;;22.20;99.90;;;;;;5144590;28;20355;-72
2023/06/15 06:35:53;;;;;;;14.15;12.27;;;22.10;99.90;;;;;;5145699;28;20379;-69
2023/06/15 06:38:24;;;;;;;14.05;12.50;;;21.90;99.90;;;;;;5145574;28;20034;-68
2023/06/15 06:40:56;;;;;;;13.45;12.18;;;22.10;99.90;;;;;;5145631;28;20034;-69
2023/06/15 06:43:27;;;;;;;16.92;12.45;;;22.10;99.90;;;;;;5145626;28;20027;-69
2023/06/15 06:45:58;;;;;;;14.73;12.82;;;22.40;99.90;;;;;;5145528;28;20035;-70
2023/06/15 06:48:29;;;;;;;12.95;11.50;;;22.60;99.90;;;;;;5144936;28;20064;-69
2023/06/15 06:51:00;;;;;;;12.68;11.35;;;22.60;99.90;;;;;;5145107;28;20073;-69
2023/06/15 06:53:31;;;;;;;11.70;10.55;;;22.60;99.90;;;;;;5145404;28;20023;-69
2023/06/15 06:56:01;;;;;;;14.30;10.93;;;22.70;99.90;;;;;;5145261;28;20398;-69
2023/06/15 06:58:32;;;;;;;12.05;10.93;;;22.60;99.90;;;;;;5145108;28;20185;-71
2023/06/15 07:01:03;;;;;;;12.13;10.65;;;22.90;99.90;;;;;;5145084;28;20438;-68
2023/06/15 07:03:35;;;;;;;11.02;9.88;;;22.90;99.90;;;;;;5145254;28;20034;-69
2023/06/15 07:06:06;;;;;;;11.73;10.55;;;22.70;99.90;;;;;;5145133;28;20035;-69
2023/06/15 07:08:37;;;;;;;12.27;10.55;;;23.00;99.90;;;;;;5145007;28;20038;-69
2023/06/15 07:11:08;;;;;;;11.52;10.35;;;23.00;99.90;;;;;;5145030;28;20154;-69
2023/06/15 07:13:39;;;;;;;12.02;10.82;;;23.00;99.90;;;;;;5143886;28;20526;-69
2023/06/15 07:16:10;;;;;;;15.50;10.48;;;23.10;99.90;;;;;;5145082;28;20166;-68
2023/06/15 07:18:40;;;;;;;11.55;9.55;;;23.20;99.90;;;;;;5144809;28;20050;-69
2023/06/15 07:21:11;;;;;;;9.70;8.80;;;23.20;99.90;;;;;;5143674;28;20027;-69
2023/06/15 07:23:42;;;;;;;9.48;8.05;;;23.20;99.90;;;;;;5145057;28;20514;-69
2023/06/15 07:26:13;;;;;;;9.27;8.50;;;23.30;99.90;;;;;;5144807;28;20019;-69
2023/06/15 07:28:44;;;;;;;10.05;8.60;;;23.50;99.90;;;;;;5144834;28;20034;-69
2023/06/15 07:31:15;;;;;;;10.32;8.60;;;23.60;99.90;;;;;;5144784;28;20042;-73
2023/06/15 07:33:46;;;;;;;11.45;8.27;;;23.40;99.90;;;;;;5144876;28;20031;-69
2023/06/15 07:36:17;;;;;;;8.65;7.85;;;23.40;99.90;;;;;;5143684;28;20391;-69
2023/06/15 07:38:47;;;;;;;10.85;7.82;;;23.70;99.90;;;;;;5144757;28;20348;-69
2023/06/15 07:41:18;;;;;;;10.88;7.53;;;23.80;99.90;;;;;;5144734;28;20031;-69
2023/06/15 07:43:49;;;;;;;10.98;8.10;;;23.80;99.90;;;;;;5144963;28;20058;-72
2023/06/15 07:46:20;;;;;;;12.85;8.02;;;24.00;99.90;;;;;;5145194;28;20023;-69
2023/06/15 07:48:51;;;;;;;9.25;7.72;;;23.80;99.90;;;;;;5144665;28;20027;-68
2023/06/15 07:51:22;;;;;;;9.95;7.63;;;23.80;99.90;;;;;;5144610;28;20054;-69
2023/06/15 07:53:53;;;;;;;8.52;7.70;;;24.10;99.90;;;;;;5144839;28;20033;-69
2023/06/15 07:56:24;;;;;;;11.77;7.60;;;24.10;99.90;;;;;;5144761;28;20027;-69
2023/06/15 07:58:55;;;;;;;8.40;7.70;;;24.00;99.90;;;;;;5144567;28;20174;-69
2023/06/15 08:01:26;;;;;;;9.63;7.93;;;23.90;99.90;;;;;;5146895;28;20113;-70
2023/06/15 08:03:56;;;;;;;8.07;7.28;;;24.00;99.90;;;;;;5148511;28;20475;-69
2023/06/15 08:06:27;;;;;;;8.20;6.97;;;24.20;99.90;;;;;;5148464;28;20466;-69
2023/06/15 08:08:58;;;;;;;10.20;7.80;;;24.50;99.90;;;;;;5148447;28;20031;-69
2023/06/15 08:11:30;;;;;;;8.88;8.07;;;24.20;99.90;;;;;;5148472;28;20113;-69
2023/06/15 08:14:01;;;;;;;8.13;7.43;;;24.40;99.90;;;;;;5148412;28;20105;-72
2023/06/15 08:16:32;;;;;;;9.30;7.53;;;24.30;99.90;;;;;;5148255;28;20522;-72
2023/06/15 08:19:03;;;;;;;9.02;7.35;;;24.70;99.90;;;;;;5148024;28;20509;-69
2023/06/15 08:21:34;;;;;;;8.93;7.30;;;25.00;99.90;;;;;;5148189;28;20031;-69
2023/06/15 08:24:04;;;;;;;7.82;7.10;;;24.40;99.90;;;;;;5148146;28;20023;-69
2023/06/15 08:26:35;;;;;;;13.00;7.35;;;25.00;99.90;;;;;;5148084;28;20030;-69
2023/06/15 08:29:07;;;;;;;8.30;7.15;;;25.00;99.90;;;;;;5148037;28;20133;-69
2023/06/15 08:31:38;;;;;;;14.48;7.78;;;25.10;99.90;;;;;;5148033;28;20019;-68
2023/06/15 08:34:09;;;;;;;9.25;6.93;;;25.00;99.90;;;;;;5148052;28;20387;-68
2023/06/15 08:36:40;;;;;;;8.27;7.30;;;25.40;99.90;;;;;;5147868;28;20158;-68
2023/06/15 08:39:11;;;;;;;8.48;7.32;;;25.70;99.90;;;;;;5147706;28;20039;-72
2023/06/15 08:41:45;;;;;;;8.85;6.63;;;25.30;99.90;;;;;;5147679;28;20394;-69
2023/06/15 08:44:18;;;;;;;7.53;6.78;;;25.20;99.90;;;;;;5147813;28;20094;-69
2023/06/15 08:46:49;;;;;;;10.52;6.97;;;25.30;99.90;;;;;;5147735;28;20467;-68
2023/06/15 08:49:20;;;;;;;7.40;6.65;;;25.50;99.90;;;;;;5147182;28;20046;-69
2023/06/15 08:51:53;;;;;;;7.65;6.90;;;24.50;99.90;;;;;;5147531;28;20525;-72
2023/06/15 08:54:28;;;;;;;8.55;6.65;;;25.20;99.90;;;;;;5147560;28;20049;-69
2023/06/15 08:56:58;;;;;;;10.23;7.10;;;25.40;99.90;;;;;;5147597;28;20030;-68
2023/06/15 08:59:30;;;;;;;7.57;6.72;;;25.30;99.90;;;;;;5147523;28;20038;-68
2023/06/15 09:02:03;;;;;;;7.60;6.60;;;25.40;99.90;;;;;;5147459;28;20098;-73
2023/06/15 09:04:34;;;;;;;10.00;7.22;;;25.30;99.90;;;;;;5147416;28;20034;-68
2023/06/15 09:07:05;;;;;;;6.82;6.03;;;25.60;99.90;;;;;;5147334;28;20035;-68
2023/06/15 09:09:36;;;;;;;8.50;6.28;;;25.40;99.90;;;;;;5147240;28;20042;-69
2023/06/15 09:12:18;;;;;;;7.30;6.70;;;25.20;99.90;;;;;;5147012;28;20062;-69
2023/06/15 09:14:49;;;;;;;8.30;7.45;;;25.20;99.90;;;;;;5147424;28;20348;-69
2023/06/15 09:17:27;;;;;;;7.35;6.43;;;25.10;99.90;;;;;;5147433;28;20038;-69
2023/06/15 09:19:58;;;;;;;9.75;6.57;;;25.40;99.90;;;;;;5147093;28;20500;-69
2023/06/15 09:22:29;;;;;;;9.23;7.13;;;25.70;99.90;;;;;;5147116;28;20031;-68
2023/06/15 09:25:00;;;;;;;9.93;8.65;;;25.70;99.90;;;;;;5147211;28;20045;-73
2023/06/15 09:27:31;;;;;;;12.13;11.00;;;26.00;99.90;;;;;;5147035;28;20035;-69
2023/06/15 09:30:05;;;;;;;13.07;11.95;;;25.90;99.90;;;;;;5146972;28;20076;-69
2023/06/15 09:32:35;;;;;;;14.13;12.82;;;26.00;99.90;;;;;;5146838;28;20047;-71
2023/06/15 09:35:08;;;;;;;13.65;12.00;;;26.00;99.90;;;;;;5146961;28;20031;-68
2023/06/15 09:37:39;;;;;;;14.15;12.88;;;25.70;99.90;;;;;;5146677;28;20043;-68
2023/06/15 09:40:12;;;;;;;11.95;10.88;;;25.90;99.90;;;;;;5146833;28;20463;-68
2023/06/15 09:42:50;;;;;;;11.70;10.73;;;26.00;99.90;;;;;;5146756;28;20129;-69
2023/06/15 09:45:21;;;;;;;12.77;11.57;;;25.90;99.90;;;;;;5146741;28;20027;-68
2023/06/15 09:47:56;;;;;;;10.32;9.30;;;26.20;99.90;;;;;;5146680;28;20023;-69
2023/06/15 09:50:29;;;;;;;10.73;9.82;;;26.10;99.90;;;;;;5146347;28;20057;-69
2023/06/15 09:53:02;;;;;;;9.65;8.63;;;25.90;99.90;;;;;;5146505;28;20427;-68
2023/06/15 09:55:33;;;;;;;8.85;8.00;;;25.90;99.90;;;;;;5146484;28;20027;-69
2023/06/15 09:58:04;;;;;;;9.23;7.88;;;25.80;99.90;;;;;;5146215;28;20034;-68
2023/06/15 10:00:35;;;;;;;9.43;8.48;;;25.70;99.90;;;;;;5146334;28;20090;-68
2023/06/15 10:03:09;;;;;;;10.50;8.48;;;25.80;99.90;;;;;;5146329;28;20459;-69
2023/06/15 10:05:43;;;;;;;9.20;8.27;;;26.30;99.90;;;;;;5146337;28;20065;-68
2023/06/15 10:08:18;;;;;;;10.45;8.90;;;26.50;99.90;;;;;;5146168;28;20026;-73
2023/06/15 10:10:50;;;;;;;8.90;8.07;;;26.40;99.90;;;;;;5146192;28;20081;-72
2023/06/15 10:13:33;;;;;;;10.95;8.35;;;26.10;99.90;;;;;;5146070;28;20034;-68
2023/06/15 10:16:05;;;;;;;9.00;7.85;;;26.10;99.90;;;;;;5146063;28;20031;-69
2023/06/15 10:18:37;;;;;;;8.45;7.03;;;26.30;99.90;;;;;;5145585;28;20077;-69
2023/06/15 10:21:13;;;;;;;8.45;7.20;;;26.60;99.90;;;;;;5145941;28;20407;-69
2023/06/15 10:23:49;;;;;;;10.82;6.47;;;26.60;99.90;;;;;;5145329;28;20038;-69
2023/06/15 10:26:21;;;;;;;8.63;7.00;;;26.60;99.90;;;;;;5145784;28;20050;-69
2023/06/15 10:29:02;;;;;;;8.25;6.70;;;26.50;99.90;;;;;;5145690;28;20034;-69
2023/06/15 10:31:45;;;;;;;9.40;6.15;;;26.00;99.90;;;;;;5145704;28;20030;-68
2023/06/15 10:34:28;;;;;;;8.27;7.45;;;26.30;99.90;;;;;;5145750;28;20063;-69
2023/06/15 10:37:10;;;;;;;8.05;7.25;;;26.10;99.90;;;;;;5145541;28;20023;-69
2023/06/15 10:39:45;;;;;;;7.70;6.82;;;26.20;99.90;;;;;;5145534;28;20045;-68
2023/06/15 10:42:15;;;;;;;6.55;5.90;;;26.50;99.90;;;;;;5145775;28;20102;-69
2023/06/15 10:44:46;;;;;;;7.38;6.40;;;26.60;99.90;;;;;;5145480;28;20114;-69
2023/06/15 10:47:21;;;;;;;10.70;6.60;;;26.60;99.90;;;;;;5145574;28;20027;-69
2023/06/15 10:49:53;;;;;;;7.82;6.15;;;26.60;99.90;;;;;;5145279;28;20062;-69
2023/06/15 10:52:34;;;;;;;9.65;6.20;;;26.10;99.90;;;;;;5145627;28;20018;-68
2023/06/15 10:55:10;;;;;;;7.90;6.15;;;26.00;99.90;;;;;;5145431;28;20058;-71
2023/06/15 10:57:40;;;;;;;6.30;5.60;;;26.40;99.90;;;;;;5145288;28;20034;-73
2023/06/15 11:00:12;;;;;;;8.73;5.82;;;26.70;99.90;;;;;;5145227;28;20058;-72
2023/06/15 11:02:46;;;;;;;6.72;6.07;;;26.50;99.90;;;;;;5145224;28;20023;-69
2023/06/15 11:05:21;;;;;;;6.97;6.38;;;26.50;99.90;;;;;;5145024;28;20047;-69
2023/06/15 11:07:52;;;;;;;6.90;6.15;;;26.80;99.90;;;;;;5145209;28;20390;-68
2023/06/15 11:10:27;;;;;;;7.72;6.97;;;26.70;99.90;;;;;;5145154;28;20038;-69
2023/06/15 11:13:03;;;;;;;8.10;7.40;;;26.80;99.90;;;;;;5145097;28;20054;-69
2023/06/15 11:15:35;;;;;;;8.98;7.95;;;26.80;99.90;;;;;;5144982;28;20038;-68
2023/06/15 11:18:14;;;;;;;10.00;7.70;;;26.70;99.90;;;;;;5144964;28;20066;-68
2023/06/15 11:20:52;;;;;;;8.65;7.63;;;27.00;99.90;;;;;;5145126;28;20130;-68
2023/06/15 11:23:24;;;;;;;8.68;7.90;;;27.10;99.90;;;;;;5144988;28;20055;-68
2023/06/15 11:25:55;;;;;;;8.30;7.60;;;26.90;99.90;;;;;;5145000;28;20053;-72
2023/06/15 11:28:30;;;;;;;9.07;8.15;;;27.00;99.90;;;;;;5144914;28;20501;-68
2023/06/15 11:31:03;;;;;;;9.10;8.27;;;27.00;99.90;;;;;;5144767;28;20035;-69
2023/06/15 11:33:39;;;;;;;10.60;6.95;;;27.10;99.90;;;;;;5144857;28;20105;-68
2023/06/15 11:36:11;;;;;;;8.07;7.28;;;26.90;99.90;;;;;;5148619;28;20027;-72
2023/06/15 11:38:43;;;;;;;8.00;7.15;;;26.60;99.90;;;;;;5148806;28;20027;-69
2023/06/15 11:41:13;;;;;;;7.45;6.85;;;26.80;99.90;;;;;;5148889;28;20446;-72
2023/06/15 11:43:48;;;;;;;8.20;7.32;;;27.20;99.90;;;;;;5148833;28;20050;-68
2023/06/15 11:46:22;;;;;;;9.02;8.20;;;27.30;99.90;;;;;;5148684;28;20034;-69
2023/06/15 11:48:58;;;;;;;8.55;6.47;;;27.60;99.90;;;;;;5148375;28;20030;-69
2023/06/15 11:51:29;;;;;;;11.57;6.10;;;27.10;99.90;;;;;;5148778;28;20038;-69
2023/06/15 11:54:00;;;;;;;13.98;6.53;;;27.40;99.90;;;;;;5147489;28;20458;-68
2023/06/15 11:56:31;;;;;;;19.05;6.75;;;27.30;99.90;;;;;;5148579;28;20034;-72
2023/06/15 11:59:03;;;;;;;8.40;7.55;;;27.60;99.90;;;;;;5148591;28;20022;-68
2023/06/15 12:01:36;;;;;;;10.10;9.00;;;27.10;99.90;;;;;;5148454;28;20031;-68
2023/06/15 12:04:13;;;;;;;10.52;7.78;;;27.10;99.90;;;;;;5148485;28;20377;-69
2023/06/15 12:06:45;;;;;;;9.57;8.82;;;25.60;99.90;;;;;;5148784;28;20106;-69
2023/06/15 12:09:19;;;;;;;11.73;8.05;;;26.30;99.90;;;;;;5148555;28;20134;-69
2023/06/15 12:11:50;;;;;;;9.63;8.70;;;26.70;99.90;;;;;;5148318;28;20054;-72
2023/06/15 12:14:24;;;;;;;8.10;7.47;;;26.80;99.90;;;;;;5148435;28;20062;-68
2023/06/15 12:16:57;;;;;;;8.52;7.72;;;26.50;99.90;;;;;;5148318;28;20049;-68
2023/06/15 12:19:28;;;;;;;8.40;7.18;;;26.70;99.90;;;;;;5148069;28;20057;-68
2023/06/15 12:22:00;;;;;;;8.55;7.82;;;26.60;99.90;;;;;;5148529;28;20022;-68
2023/06/15 12:24:38;;;;;;;9.50;7.45;;;26.30;99.90;;;;;;5148546;28;20031;-69
2023/06/15 12:27:16;;;;;;;9.25;8.45;;;26.10;99.90;;;;;;5148303;28;20538;-71
2023/06/15 12:29:46;;;;;;;8.85;7.93;;;26.00;99.90;;;;;;5148319;28;20039;-69
2023/06/15 12:32:27;;;;;;;9.98;9.05;;;25.70;99.90;;;;;;5148189;28;20142;-68
2023/06/15 12:34:58;;;;;;;8.82;8.02;;;25.60;99.90;;;;;;5148080;28;20614;-69
2023/06/15 12:37:29;;;;;;;11.23;9.07;;;25.80;99.90;;;;;;5147959;28;20440;-68
2023/06/15 12:40:00;;;;;;;9.07;8.27;;;26.10;99.90;;;;;;5146512;28;20467;-68
2023/06/15 12:42:32;;;;;;;9.10;8.20;;;26.30;99.90;;;;;;5147903;28;20023;-68
2023/06/15 12:45:04;;;;;;;9.10;8.25;;;26.40;99.90;;;;;;5147788;28;20026;-69
2023/06/15 12:47:35;;;;;;;8.85;7.95;;;26.50;99.90;;;;;;5147019;28;20030;-69
2023/06/15 12:50:06;;;;;;;9.23;8.43;;;26.60;99.90;;;;;;5147433;28;20113;-69
2023/06/15 12:52:37;;;;;;;10.73;9.00;;;26.40;99.90;;;;;;5147599;28;20091;-68
2023/06/15 12:55:08;;;;;;;8.93;8.02;;;26.00;99.90;;;;;;5147616;28;20070;-69
2023/06/15 12:57:39;;;;;;;8.93;8.20;;;25.90;99.90;;;;;;5147573;28;20110;-68
2023/06/15 13:00:11;;;;;;;8.90;7.85;;;25.60;99.90;;;;;;5147426;28;20496;-68